Pagrindinis puslapis
METAR-TAF:

METAR-TAF

Oro uostai :

Iljeusas, Bahija, Brazilija

platuma: 14-49S, ilguma: 039-02W, Aukštis: 4 m

Dabartinis oras

Ataskaita buvo paskelbta 2 valandos ir 17 minutes, ne 20:00 UTC
Vėjas 6 kt iš Pietų
Temperatūra 25°C
Drėgmė 79%
Slėgis 1017 hPa
Matomumas 10 km arba daugiau
Mažai debesys ne aukštis 2000 ft

METAR: SBIL 302000Z 18006KT 9999 FEW020 25/21 Q1017

Laikas: 19:17 (22:17 UTC)

Prognozė

Ataskaita buvo paskelbta 7 valandos ir 17 minutes, ne 15:00 UTC
Prognozė galioja nuo 30 metu 18 UTC su 31 metu 06 UTC
Vėjas 9 kt iš Pietų/Pietryčių
Matomumas: 8000 m
Išsisklaidę debesys ne aukštis 2000 ft

TAF: SBIL 301500Z 3018/3106 16009KT 8000 SCT020 TX27/3019Z TN24/3105Z RMK PEI

Orai ataskaitas ir orų prognozės (METAR, TAF).

turimą stotys yra geltonos ir raudonos taškus žemėlapyje.

Perkelti pele per norėdami pamatyti stoties vardą.

Tada spustelėkite, norėdami matyti oro stebėjimo ir prognozės.

Norėdami pakeisti žemėlapį: spustelėkite ant žalios mygtukų su juodo kryžiaus žemyn,; žalią mygtuką su brūkšneliu, jei norite nutolinti; arba žalių rodyklių gretimoms žemėlapius.


METAR-TAF: